National Weather Service United States Department of Commerce

Hurricane Warning for Big Island of Hawaii; Tropical Storm & Hurricane Watch for Portions of Florida Coast

The National Hurricane Center has issued a Tropical Storm Watch and a Hurricane Watch for parts of Florida as Tropical Depression Nine churns in the eastern Gulf of Mexico. Meanwhile, Hurricane Madeline in the Pacific is on a path towards Hawaii. A Hurricane Warning is in effect for the Big Island. Read More >

Note: Wind speeds in mph
Date & Time are in UTC time. Subtract 4 hours for EDT, 5 hours for EST.
 

Date & Time Temperature Wind Direction Wind Speed Wind Gust
2016-08-31 07:05:00 56304 24 30
2016-08-31 07:00:00 56308 26 35
2016-08-31 06:55:00 56304 26 30
2016-08-31 06:50:00 56306 24 28
2016-08-31 06:45:00 56305 23 29
2016-08-31 06:40:00 56308 24 29
2016-08-31 06:35:00 56305 26 33
2016-08-31 06:30:00 56304 30 33
2016-08-31 06:25:00 56304 28 33
2016-08-31 06:20:00 56304 29 35
2016-08-31 06:15:00 55303 27 32
2016-08-31 06:10:00 55308 27 30
2016-08-31 06:05:00 55300 24 29
2016-08-31 06:00:00 56306 27 33
2016-08-31 05:55:00 56312 28 32
2016-08-31 05:50:00 55310 26 31
2016-08-31 05:45:00 56303 24 32
2016-08-31 05:40:00 56301 26 31
2016-08-31 05:35:00 57307 29 34
2016-08-31 05:30:00 57304 28 33
2016-08-31 05:25:00 58304 25 30
2016-08-31 05:20:00 58306 28 31
2016-08-31 05:15:00 58305 25 29
2016-08-31 05:10:00 58303 24 29
2016-08-31 05:05:00 58306 26 30
2016-08-31 05:00:00 57308 27 30
2016-08-31 04:55:00 57306 25 29
2016-08-31 04:50:00 57304 26 29
2016-08-31 04:45:00 57306 23 28
2016-08-31 04:40:00 58310 25 28
2016-08-31 04:35:00 58310 25 30
2016-08-31 04:30:00 58308 28 31
2016-08-31 04:25:00 58307 27 31
2016-08-31 04:20:00 58307 28 32
2016-08-31 04:15:00 58308 28 30
2016-08-31 04:10:00 58308 26 29
2016-08-31 04:05:00 58307 26 30
2016-08-31 04:00:00 58306 25 29
2016-08-31 03:55:00 58305 24 26
2016-08-31 03:50:00 58305 22 25
2016-08-31 03:45:00 58306 23 29
2016-08-31 03:40:00 58305 22 26
2016-08-31 03:35:00 58308 23 26
2016-08-31 03:30:00 58307 25 27
2016-08-31 03:25:00 58308 24 27
2016-08-31 03:20:00 58308 24 26
2016-08-31 03:15:00 58308 22 25
2016-08-31 03:10:00 58307 25 27
2016-08-31 03:05:00 58306 23 27
2016-08-31 03:00:00 58306 24 28
2016-08-31 02:55:00 58306 24 27
2016-08-31 02:50:00 58303 23 26
2016-08-31 02:45:00 58302 24 27
2016-08-31 02:40:00 58302 22 26
2016-08-31 02:35:00 58303 24 27
2016-08-31 02:30:00 58303 24 27
2016-08-31 02:25:00 58304 23 28
2016-08-31 02:20:00 58303 24 28
2016-08-31 02:15:00 58304 24 28
2016-08-31 02:10:00 58306 23 26
2016-08-31 02:05:00 58306 22 26
2016-08-31 02:00:00 58306 22 25
2016-08-31 01:55:00 58306 22 25
2016-08-31 01:50:00 58306 23 25
2016-08-31 01:45:00 58305 23 26
2016-08-31 01:40:00 58305 22 25
2016-08-31 01:35:00 58306 23 26
2016-08-31 01:30:00 58307 23 27
2016-08-31 01:25:00 58309 23 26
2016-08-31 01:20:00 58309 22 26
2016-08-31 01:15:00 58307 22 26
2016-08-31 01:10:00 58307 23 26
2016-08-31 01:05:00 58307 23 29
2016-08-31 01:00:00 58309 23 27
2016-08-31 00:55:00 58308 22 27
2016-08-31 00:50:00 58308 23 26
2016-08-31 00:45:00 58307 22 26
2016-08-31 00:40:00 58307 24 26
2016-08-31 00:35:00 58306 23 27
2016-08-31 00:30:00 58307 24 27
2016-08-31 00:25:00 58306 23 26
2016-08-31 00:20:00 58305 23 27
2016-08-31 00:15:00 58307 23 26
2016-08-31 00:10:00 57309 24 26
2016-08-31 00:05:00 57309 23 27
2016-08-31 00:00:00 57311 21 25
2016-08-30 23:55:00 57308 22 25
2016-08-30 23:50:00 57308 22 24
2016-08-30 23:45:00 57310 21 24
2016-08-30 23:40:00 57314 20 26
2016-08-30 23:35:00 57311 23 25
2016-08-30 23:30:00 57312 21 24
2016-08-30 23:25:00 57313 21 25
2016-08-30 23:20:00 57313 22 25
2016-08-30 23:15:00 57312 20 24
2016-08-30 23:10:00 57312 19 22
2016-08-30 23:05:00 57310 21 23
2016-08-30 23:00:00 57309 20 23
2016-08-30 22:55:00 57309 20 23
2016-08-30 22:50:00 57309 20 23
2016-08-30 22:45:00 57311 20 22
2016-08-30 22:40:00 57311 21 24
2016-08-30 22:35:00 57310 20 23
2016-08-30 22:30:00 58309 21 23
2016-08-30 22:25:00 58311 20 23
2016-08-30 22:20:00 57309 20 22
2016-08-30 22:15:00 58310 19 22
2016-08-30 22:10:00 58310 20 22
2016-08-30 22:05:00 58311 20 22
2016-08-30 22:00:00 58309 19 22
2016-08-30 21:55:00 58309 19 21
2016-08-30 21:50:00 57309 17 21
2016-08-30 21:45:00 57308 17 20
2016-08-30 21:40:00 58308 17 20
2016-08-30 21:35:00 58308 18 21
2016-08-30 21:30:00 58309 17 18
2016-08-30 21:25:00 58311 15 17
2016-08-30 21:20:00 58308 13 18
2016-08-30 21:15:00 58310 15 19
2016-08-30 21:10:00 58311 17 19
2016-08-30 21:05:00 58311 17 20
2016-08-30 21:00:00 58308 18 19
2016-08-30 20:55:00 58313 17 20
2016-08-30 20:50:00 59310 17 20
2016-08-30 20:45:00 59306 15 20
2016-08-30 20:40:00 59309 17 20
2016-08-30 20:35:00 59313 16 20
2016-08-30 20:30:00 59317 14 19
2016-08-30 20:25:00 59307 17 20
2016-08-30 20:20:00 60309 15 19
2016-08-30 20:15:00 60306 16 19
2016-08-30 20:10:00 59318 13 17
2016-08-30 20:05:00 59308 14 17
2016-08-30 20:00:00 59310 14 15
2016-08-30 19:55:00 59311 12 16
2016-08-30 19:50:00 59319 14 18
2016-08-30 19:45:00 59313 16 18
2016-08-30 19:40:00 59310 15 18
2016-08-30 19:35:00 59319 15 19
2016-08-30 19:30:00 59314 18 21
2016-08-30 19:25:00 60323 18 21
2016-08-30 19:20:00 60320 17 21
2016-08-30 19:15:00 61319 18 21
2016-08-30 19:10:00 60310 14 21